createdAt,value
2017-11-30T00:00:55.085Z,4.7
2017-11-30T00:01:55.372Z,4.68
2017-11-30T00:02:55.364Z,4.73
2017-11-30T00:03:55.376Z,4.58
2017-11-30T00:04:55.138Z,4.48
2017-11-30T00:05:55.408Z,4.5
2017-11-30T00:06:55.429Z,4.52
2017-11-30T00:07:55.174Z,4.56
2017-11-30T00:08:55.460Z,4.44
2017-11-30T00:09:55.466Z,4.26
2017-11-30T00:10:55.480Z,4.44
2017-11-30T00:11:55.490Z,4.52
2017-11-30T00:12:55.504Z,4.49
2017-11-30T00:13:55.535Z,4.6
2017-11-30T00:14:55.276Z,4.5
2017-11-30T00:15:55.292Z,4.55
2017-11-30T00:16:55.302Z,4.52
2017-11-30T00:17:55.580Z,4.45
2017-11-30T00:18:55.636Z,4.49
2017-11-30T00:19:55.349Z,4.49
2017-11-30T00:20:55.367Z,4.53
2017-11-30T00:21:55.370Z,4.49
2017-11-30T00:22:55.650Z,4.38
2017-11-30T00:23:55.397Z,4.5
2017-11-30T00:24:55.409Z,4.34
2017-11-30T00:25:55.696Z,4.26
2017-11-30T00:26:55.695Z,4.32
2017-11-30T00:27:55.727Z,4.3
2017-11-30T00:28:55.724Z,4.37
2017-11-30T00:29:55.481Z,4.31
2017-11-30T00:30:55.495Z,4.22
2017-11-30T00:31:55.814Z,4.4
2017-11-30T00:32:55.521Z,4.44
2017-11-30T00:33:55.583Z,4.55
2017-11-30T00:34:55.814Z,4.55
2017-11-30T00:35:55.819Z,4.3
2017-11-30T00:36:55.574Z,4.2
2017-11-30T00:37:55.890Z,4.32
2017-11-30T00:38:55.614Z,4.16
2017-11-30T00:39:55.888Z,4.04
2017-11-30T00:40:55.890Z,4.04
2017-11-30T00:41:55.658Z,4.16
2017-11-30T00:42:55.918Z,4.14
2017-11-30T00:43:55.932Z,4.2
2017-11-30T00:44:55.682Z,4.19
2017-11-30T00:45:55.956Z,4.28
2017-11-30T00:46:55.969Z,4.19
2017-11-30T00:47:55.733Z,4.12
2017-11-30T00:48:55.992Z,4.1
2017-11-30T00:49:55.755Z,4.12
2017-11-30T00:50:55.769Z,4.23
2017-11-30T00:51:56.038Z,4.06
2017-11-30T00:52:56.048Z,4.04
2017-11-30T00:53:56.061Z,4.13
2017-11-30T00:54:56.076Z,4.1
2017-11-30T00:55:56.126Z,4.05
2017-11-30T00:56:55.857Z,4.08
2017-11-30T00:57:55.860Z,4.04
2017-11-30T00:58:55.877Z,4.06
2017-11-30T00:59:55.885Z,4.1
2017-11-30T01:00:56.159Z,4.19
2017-11-30T01:01:56.169Z,4.14
2017-11-30T01:02:55.926Z,4.08
2017-11-30T01:03:55.939Z,4.13
2017-11-30T01:04:55.958Z,4.16
2017-11-30T01:05:55.974Z,4.19
2017-11-30T01:06:56.241Z,3.98
2017-11-30T01:07:56.261Z,3.91
2017-11-30T01:08:56.007Z,3.94
2017-11-30T01:09:56.280Z,3.96
2017-11-30T01:10:56.084Z,3.99
2017-11-30T01:11:56.307Z,4.1
2017-11-30T01:12:56.319Z,3.98
2017-11-30T01:13:56.079Z,3.98
2017-11-30T01:14:56.344Z,4.12
2017-11-30T01:15:56.127Z,4.01
2017-11-30T01:16:56.372Z,4.1
2017-11-30T01:17:56.129Z,3.99
2017-11-30T01:18:56.394Z,4.02
2017-11-30T01:19:56.415Z,4.02
2017-11-30T01:20:56.428Z,4.17
2017-11-30T01:21:56.448Z,4.19
2017-11-30T01:22:55.934Z,4.17
2017-11-30T01:23:55.954Z,4.2
2017-11-30T01:24:56.482Z,4.26
2017-11-30T01:25:56.499Z,4.37
2017-11-30T01:26:56.297Z,4.35
2017-11-30T01:27:56.274Z,4.52
2017-11-30T01:28:56.278Z,4.42
2017-11-30T01:29:56.600Z,4.23
2017-11-30T01:30:56.562Z,4.19
2017-11-30T01:31:56.579Z,4.14
2017-11-30T01:32:56.331Z,4.02
2017-11-30T01:33:56.347Z,4.16
2017-11-30T01:34:56.101Z,4.23
2017-11-30T01:35:56.369Z,4.16
2017-11-30T01:36:56.125Z,4.32
2017-11-30T01:37:56.398Z,4.2
2017-11-30T01:38:56.671Z,4.19
2017-11-30T01:39:56.428Z,4.13
2017-11-30T01:40:56.700Z,4.13
2017-11-30T01:41:56.225Z,4.14
2017-11-30T01:42:56.728Z,4.13
2017-11-30T01:43:56.484Z,4.2
2017-11-30T01:44:56.544Z,4.34
2017-11-30T01:45:56.767Z,4.2
2017-11-30T01:46:56.795Z,4.31
2017-11-30T01:47:56.791Z,4.22
2017-11-30T01:48:56.806Z,4.3
2017-11-30T01:49:56.813Z,4.31
2017-11-30T01:50:56.836Z,4.19
2017-11-30T01:51:56.588Z,4.01
2017-11-30T01:52:56.862Z,4.04
2017-11-30T01:53:56.636Z,3.94
2017-11-30T01:54:56.884Z,3.92
2017-11-30T01:55:56.902Z,4.02
2017-11-30T01:56:56.931Z,3.83
2017-11-30T01:57:56.928Z,3.76
2017-11-30T01:58:56.938Z,3.76
2017-11-30T01:59:56.697Z,3.78
2017-11-30T02:00:56.762Z,3.84
2017-11-30T02:01:56.987Z,3.74
2017-11-30T02:02:56.986Z,3.74
2017-11-30T02:03:57.001Z,3.83
2017-11-30T02:04:56.762Z,3.76
2017-11-30T02:05:56.515Z,3.74
2017-11-30T02:06:57.046Z,3.74
2017-11-30T02:07:57.061Z,3.74
2017-11-30T02:08:56.821Z,3.53
2017-11-30T02:09:57.087Z,3.62
2017-11-30T02:10:57.110Z,3.6
2017-11-30T02:11:56.856Z,3.65
2017-11-30T02:12:56.872Z,3.66
2017-11-30T02:13:56.881Z,3.62
2017-11-30T02:14:56.895Z,3.66
2017-11-30T02:15:57.215Z,3.73
2017-11-30T02:16:57.179Z,3.58
2017-11-30T02:17:56.935Z,3.69
2017-11-30T02:18:56.946Z,3.7
2017-11-30T02:19:57.219Z,3.69
2017-11-30T02:20:56.973Z,3.53
2017-11-30T02:21:57.245Z,3.55
2017-11-30T02:22:57.258Z,3.69
2017-11-30T02:23:57.288Z,3.78
2017-11-30T02:24:56.771Z,3.69
2017-11-30T02:25:57.052Z,3.69
2017-11-30T02:26:57.311Z,3.5
2017-11-30T02:27:57.329Z,3.42
2017-11-30T02:28:57.338Z,3.44
2017-11-30T02:29:57.350Z,3.23
2017-11-30T02:30:57.368Z,3.4
2017-11-30T02:31:57.387Z,3.25
2017-11-30T02:32:57.392Z,3.45
2017-11-30T02:33:57.144Z,3.34
2017-11-30T02:34:56.899Z,3.29
2017-11-30T02:35:57.179Z,3.37
2017-11-30T02:36:57.440Z,3.5
2017-11-30T02:37:57.462Z,3.53
2017-11-30T02:38:57.465Z,3.6
2017-11-30T02:39:57.496Z,3.66
2017-11-30T02:40:57.245Z,3.56
2017-11-30T02:41:57.268Z,3.53
2017-11-30T02:42:57.533Z,3.62
2017-11-30T02:43:57.551Z,3.34
2017-11-30T02:44:57.550Z,3.32
2017-11-30T02:45:57.565Z,3.25
2017-11-30T02:46:57.600Z,3.36
2017-11-30T02:47:57.324Z,3.4
2017-11-30T02:48:57.342Z,3.51
2017-11-30T02:49:57.354Z,3.53
2017-11-30T02:50:57.114Z,3.32
2017-11-30T02:51:57.651Z,3.23
2017-11-30T02:52:57.391Z,3.16
2017-11-30T02:53:57.431Z,3.19
2017-11-30T02:54:57.423Z,3.36
2017-11-30T02:55:57.701Z,3.36
2017-11-30T02:56:57.716Z,3.19
2017-11-30T02:57:57.732Z,3.11
2017-11-30T02:58:57.733Z,3.16
2017-11-30T02:59:57.493Z,3.21
2017-11-30T03:00:57.757Z,3.16
2017-11-30T03:01:57.819Z,3.28
2017-11-30T03:02:57.778Z,3.4
2017-11-30T03:03:57.286Z,3.32
2017-11-30T03:04:57.545Z,3.41
2017-11-30T03:05:57.815Z,3.36
2017-11-30T03:06:57.575Z,3.45
2017-11-30T03:07:57.598Z,3.62
2017-11-30T03:08:57.602Z,3.48
2017-11-30T03:09:57.872Z,3.51
2017-11-30T03:10:57.648Z,3.44
2017-11-30T03:11:57.899Z,3.5
2017-11-30T03:12:57.662Z,3.31
2017-11-30T03:13:57.929Z,3.32
2017-11-30T03:14:57.936Z,3.29
2017-11-30T03:15:57.959Z,3.45
2017-11-30T03:16:57.755Z,3.45
2017-11-30T03:17:57.719Z,3.47
2017-11-30T03:18:57.733Z,3.5
2017-11-30T03:19:58.004Z,3.45
2017-11-30T03:20:57.502Z,3.34
2017-11-30T03:21:57.513Z,3.31
2017-11-30T03:22:58.038Z,3.45
2017-11-30T03:23:58.056Z,3.62
2017-11-30T03:24:57.811Z,3.63
2017-11-30T03:25:58.079Z,3.59
2017-11-30T03:26:57.845Z,3.59
2017-11-30T03:27:58.111Z,3.51
2017-11-30T03:28:58.130Z,3.48
2017-11-30T03:29:57.878Z,3.59
2017-11-30T03:30:58.182Z,3.48
2017-11-30T03:31:58.161Z,3.55
2017-11-30T03:32:58.182Z,3.32
2017-11-30T03:33:57.932Z,3.36
2017-11-30T03:34:58.204Z,3.55
2017-11-30T03:35:58.208Z,3.41
2017-11-30T03:36:57.978Z,3.37
2017-11-30T03:37:58.250Z,3.28
2017-11-30T03:38:58.250Z,3.16
2017-11-30T03:39:58.267Z,3.18
2017-11-30T03:40:58.020Z,3.23
2017-11-30T03:41:58.034Z,3.26
2017-11-30T03:42:58.303Z,3.08
2017-11-30T03:43:58.329Z,3.21
2017-11-30T03:44:58.333Z,3.4
2017-11-30T03:45:58.340Z,3.45
2017-11-30T03:46:58.099Z,3.45
2017-11-30T03:47:58.367Z,3.48
2017-11-30T03:48:58.381Z,3.36
2017-11-30T03:49:58.137Z,3.36
2017-11-30T03:50:58.408Z,3.4
2017-11-30T03:51:58.217Z,3.45
2017-11-30T03:52:58.438Z,3.5
2017-11-30T03:53:58.187Z,3.47
2017-11-30T03:54:58.203Z,3.59
2017-11-30T03:55:58.223Z,3.55
2017-11-30T03:56:58.489Z,3.65
2017-11-30T03:57:58.499Z,3.73
2017-11-30T03:58:58.514Z,3.59
2017-11-30T03:59:58.269Z,3.5
2017-11-30T04:00:58.282Z,3.5
2017-11-30T04:01:58.549Z,3.48
2017-11-30T04:02:58.308Z,3.4
2017-11-30T04:03:58.339Z,3.23
2017-11-30T04:04:58.605Z,3.19
2017-11-30T04:05:58.604Z,3.25
2017-11-30T04:06:58.676Z,3.11
2017-11-30T04:07:58.636Z,3.13
2017-11-30T04:08:58.398Z,3.14
2017-11-30T04:09:58.400Z,3.08
2017-11-30T04:10:58.690Z,3.14
2017-11-30T04:11:58.686Z,2.92
2017-11-30T04:12:58.716Z,3.04
2017-11-30T04:13:58.461Z,3.08
2017-11-30T04:14:58.467Z,2.85
2017-11-30T04:15:58.743Z,2.86
2017-11-30T04:16:58.757Z,2.86
2017-11-30T04:17:58.794Z,2.79
2017-11-30T04:18:58.784Z,2.82
2017-11-30T04:19:58.788Z,2.87
2017-11-30T04:20:58.550Z,2.87
2017-11-30T04:21:58.363Z,2.93
2017-11-30T04:22:58.828Z,2.75
2017-11-30T04:23:58.839Z,2.93
2017-11-30T04:24:58.603Z,2.82
2017-11-30T04:25:58.603Z,3.08
2017-11-30T04:26:58.984Z,2.92
2017-11-30T04:27:58.641Z,2.83
2017-11-30T04:28:58.921Z,2.8
2017-11-30T04:29:58.686Z,2.9
2017-11-30T04:30:58.927Z,2.86
2017-11-30T04:31:58.683Z,3.01
2017-11-30T04:32:58.690Z,2.89
2017-11-30T04:33:58.456Z,2.85
2017-11-30T04:34:58.980Z,2.77
2017-11-30T04:35:58.728Z,2.67
2017-11-30T04:36:58.793Z,2.57
2017-11-30T04:37:59.015Z,2.69
2017-11-30T04:38:59.026Z,2.83
2017-11-30T04:39:59.038Z,2.83
2017-11-30T04:40:58.795Z,2.83
2017-11-30T04:41:59.062Z,2.85
2017-11-30T04:42:59.075Z,2.65
2017-11-30T04:43:58.578Z,2.61
2017-11-30T04:44:59.100Z,2.64
2017-11-30T04:45:59.116Z,2.74
2017-11-30T04:46:59.173Z,2.68
2017-11-30T04:47:59.141Z,2.83
2017-11-30T04:48:58.904Z,2.89
2017-11-30T04:49:58.906Z,2.64
2017-11-30T04:50:59.176Z,2.75
2017-11-30T04:51:59.199Z,2.67
2017-11-30T04:52:59.202Z,2.69
2017-11-30T04:53:59.215Z,2.72
2017-11-30T04:54:59.236Z,2.85
2017-11-30T04:55:59.243Z,2.74
2017-11-30T04:56:59.255Z,2.65
2017-11-30T04:57:59.266Z,2.61
2017-11-30T04:58:59.280Z,2.72
2017-11-30T04:59:59.291Z,2.53
2017-11-30T05:00:59.049Z,2.5
2017-11-30T05:01:59.057Z,2.61
2017-11-30T05:02:59.089Z,2.56
2017-11-30T05:03:59.085Z,2.57
2017-11-30T05:04:59.358Z,2.62
2017-11-30T05:05:59.368Z,2.61
2017-11-30T05:06:59.126Z,2.64
2017-11-30T05:07:59.404Z,2.57
2017-11-30T05:08:58.937Z,2.57
2017-11-30T05:09:59.160Z,2.57
2017-11-30T05:10:59.433Z,2.56
2017-11-30T05:11:59.442Z,2.65
2017-11-30T05:12:59.447Z,2.62
2017-11-30T05:13:59.564Z,2.54
2017-11-30T05:14:59.477Z,2.57
2017-11-30T05:15:59.487Z,2.56
2017-11-30T05:16:59.242Z,2.54
2017-11-30T05:17:59.260Z,2.43
2017-11-30T05:18:59.527Z,2.46
2017-11-30T05:19:59.305Z,2.65
2017-11-30T05:20:59.551Z,2.62
2017-11-30T05:21:59.305Z,2.46
2017-11-30T05:22:59.600Z,2.38
2017-11-30T05:23:59.339Z,2.35
2017-11-30T05:24:59.604Z,2.31
2017-11-30T05:25:59.664Z,2.28
2017-11-30T05:26:59.633Z,2.42
2017-11-30T05:27:59.635Z,2.49
2017-11-30T05:28:59.391Z,2.71
2017-11-30T05:29:59.661Z,2.57
2017-11-30T05:30:59.691Z,2.46
2017-11-30T05:31:59.686Z,2.39
2017-11-30T05:32:59.694Z,2.53
2017-11-30T05:33:59.458Z,2.62
2017-11-30T05:34:59.725Z,2.62
2017-11-30T05:35:59.483Z,2.8
2017-11-30T05:36:59.492Z,2.75
2017-11-30T05:37:59.776Z,2.71
2017-11-30T05:38:59.773Z,2.79
2017-11-30T05:39:59.275Z,2.74
2017-11-30T05:40:59.333Z,2.83
2017-11-30T05:41:59.815Z,2.79
2017-11-30T05:42:59.578Z,2.65
2017-11-30T05:43:59.861Z,2.75
2017-11-30T05:44:59.852Z,2.89
2017-11-30T05:45:59.608Z,2.98
2017-11-30T05:46:59.875Z,2.9
2017-11-30T05:47:59.633Z,2.89
2017-11-30T05:48:59.642Z,2.83
2017-11-30T05:49:59.662Z,2.65
2017-11-30T05:50:59.940Z,2.65
2017-11-30T05:51:59.687Z,2.51
2017-11-30T05:52:59.703Z,2.51
2017-11-30T05:53:59.965Z,2.5
2017-11-30T05:54:59.723Z,2.44
2017-11-30T05:55:59.525Z,2.43
2017-11-30T05:57:00.003Z,2.5
2017-11-30T05:58:00.026Z,2.64
2017-11-30T05:59:00.031Z,2.61
2017-11-30T05:59:59.788Z,2.5
2017-11-30T06:01:00.067Z,2.62
2017-11-30T06:01:59.821Z,2.6
2017-11-30T06:03:00.093Z,2.54
2017-11-30T06:04:00.101Z,2.56
2017-11-30T06:05:00.107Z,2.65
2017-11-30T06:06:00.121Z,2.72
2017-11-30T06:07:00.131Z,2.69
2017-11-30T06:08:00.148Z,2.85
2017-11-30T06:09:00.170Z,2.85
2017-11-30T06:09:59.923Z,2.83
2017-11-30T06:11:00.249Z,2.71
2017-11-30T06:12:00.189Z,2.62
2017-11-30T06:13:00.218Z,2.61
2017-11-30T06:13:59.700Z,2.62
2017-11-30T06:15:00.229Z,2.82
2017-11-30T06:16:00.244Z,2.9
2017-11-30T06:17:00.005Z,2.82
2017-11-30T06:18:00.012Z,2.9
2017-11-30T06:19:00.282Z,2.85
2017-11-30T06:20:00.040Z,2.83
2017-11-30T06:21:00.046Z,2.85
2017-11-30T06:22:00.321Z,2.93
2017-11-30T06:23:00.327Z,3.03
2017-11-30T06:24:00.353Z,2.8
2017-11-30T06:25:00.106Z,2.89
2017-11-30T06:26:00.419Z,2.98
2017-11-30T06:27:00.389Z,3.03
2017-11-30T06:28:00.138Z,3.04
2017-11-30T06:29:00.416Z,3
2017-11-30T06:30:00.165Z,3.03
2017-11-30T06:31:00.190Z,3.13
2017-11-30T06:32:00.190Z,3.16
2017-11-30T06:33:00.467Z,3.16
2017-11-30T06:34:00.219Z,3.1
2017-11-30T06:35:00.491Z,3.01
2017-11-30T06:36:00.506Z,3.13
2017-11-30T06:37:00.259Z,3.26
2017-11-30T06:38:00.528Z,3.23
2017-11-30T06:39:00.287Z,3.21
2017-11-30T06:40:00.297Z,3.25
2017-11-30T06:41:00.567Z,3.29
2017-11-30T06:42:00.325Z,3.32
2017-11-30T06:43:00.337Z,3.34
2017-11-30T06:44:00.624Z,3.44
2017-11-30T06:45:00.619Z,3.51
2017-11-30T06:46:00.377Z,3.31
2017-11-30T06:47:00.128Z,3.31
2017-11-30T06:48:00.403Z,3.34
2017-11-30T06:49:00.671Z,3.45
2017-11-30T06:50:00.446Z,3.5
2017-11-30T06:51:00.706Z,3.41
2017-11-30T06:52:00.455Z,3.37
2017-11-30T06:53:00.736Z,3.25
2017-11-30T06:54:00.476Z,3.22
2017-11-30T06:55:00.494Z,3.26
2017-11-30T06:56:00.770Z,3.26
2017-11-30T06:57:00.786Z,3.37
2017-11-30T06:58:00.532Z,3.36
2017-11-30T06:59:00.808Z,3.32
2017-11-30T07:00:00.565Z,3.37
2017-11-30T07:01:00.828Z,3.21
2017-11-30T07:02:00.899Z,3.25
2017-11-30T07:03:00.595Z,3.5
2017-11-30T07:04:00.878Z,3.47
2017-11-30T07:05:00.880Z,3.44
2017-11-30T07:06:00.898Z,3.34
2017-11-30T07:07:00.916Z,3.32
2017-11-30T07:08:00.919Z,3.29
2017-11-30T07:09:00.938Z,3.22
2017-11-30T07:10:00.966Z,3.34
2017-11-30T07:11:00.969Z,3.32
2017-11-30T07:12:01.014Z,3.34
2017-11-30T07:13:00.734Z,3.32
2017-11-30T07:14:00.742Z,3.22
2017-11-30T07:15:01.020Z,3.29
2017-11-30T07:16:00.780Z,3.32
2017-11-30T07:17:01.092Z,3.36
2017-11-30T07:18:01.061Z,3.34
2017-11-30T07:19:01.068Z,3.31
2017-11-30T07:20:01.083Z,3.21
2017-11-30T07:21:01.105Z,3.25
2017-11-30T07:22:00.867Z,3.36
2017-11-30T07:23:01.118Z,3.36
2017-11-30T07:24:00.878Z,3.41
2017-11-30T07:25:01.170Z,3.31
2017-11-30T07:26:01.171Z,3.42
2017-11-30T07:27:01.186Z,3.48
2017-11-30T07:28:01.198Z,3.37
2017-11-30T07:29:00.964Z,3.31
2017-11-30T07:30:00.697Z,3.32
2017-11-30T07:31:00.981Z,3.34
2017-11-30T07:32:01.030Z,3.41
2017-11-30T07:33:00.998Z,3.34
2017-11-30T07:34:01.011Z,3.48
2017-11-30T07:35:01.280Z,3.48
2017-11-30T07:36:01.035Z,3.32
2017-11-30T07:37:00.788Z,3.25
2017-11-30T07:38:01.322Z,3.32
2017-11-30T07:39:01.325Z,3.23
2017-11-30T07:40:01.355Z,3.19
2017-11-30T07:41:01.106Z,3.23
2017-11-30T07:42:00.861Z,3.05
2017-11-30T07:43:01.403Z,3.11
2017-11-30T07:44:01.409Z,3.21
2017-11-30T07:45:01.426Z,3.22
2017-11-30T07:46:01.450Z,3.04
2017-11-30T07:47:01.488Z,3.11
2017-11-30T07:48:01.191Z,3.16
2017-11-30T07:49:00.947Z,3.07
2017-11-30T07:50:01.238Z,2.83
2017-11-30T07:51:01.491Z,2.86
2017-11-30T07:52:01.504Z,2.83
2017-11-30T07:53:01.259Z,2.83
2017-11-30T07:54:01.537Z,2.9
2017-11-30T07:55:01.546Z,2.97
2017-11-30T07:56:01.559Z,2.87
2017-11-30T07:57:01.592Z,2.85
2017-11-30T07:58:01.324Z,2.95
2017-11-30T07:59:01.338Z,2.92
2017-11-30T08:00:01.353Z,3
2017-11-30T08:01:01.626Z,3.18
2017-11-30T08:02:01.632Z,3.13
2017-11-30T08:03:01.404Z,3.04
2017-11-30T08:04:01.661Z,3.25
2017-11-30T08:05:01.709Z,3.1
2017-11-30T08:06:01.431Z,3.03
2017-11-30T08:07:01.702Z,2.92
2017-11-30T08:08:01.713Z,2.93
2017-11-30T08:09:01.469Z,2.92
2017-11-30T08:10:01.491Z,3.04
2017-11-30T08:11:01.499Z,3
2017-11-30T08:12:01.782Z,3.05
2017-11-30T08:13:01.263Z,3.14
2017-11-30T08:14:01.551Z,3.25
2017-11-30T08:15:01.814Z,3.31
2017-11-30T08:16:01.573Z,3.28
2017-11-30T08:17:01.575Z,3.19
2017-11-30T08:18:01.651Z,3.23
2017-11-30T08:19:01.861Z,3.26
2017-11-30T08:20:01.880Z,3.25
2017-11-30T08:21:01.373Z,3.13
2017-11-30T08:22:01.897Z,3.13
2017-11-30T08:23:01.908Z,3.1
2017-11-30T08:24:01.938Z,3
2017-11-30T08:25:01.682Z,3.01
2017-11-30T08:26:01.691Z,3.13
2017-11-30T08:27:01.711Z,3.07
2017-11-30T08:28:01.722Z,3.05
2017-11-30T08:29:01.738Z,3.04
2017-11-30T08:30:02.003Z,3.19
2017-11-30T08:31:02.034Z,3.26
2017-11-30T08:32:01.777Z,3.41
2017-11-30T08:33:01.791Z,3.51
2017-11-30T08:34:01.541Z,3.56
2017-11-30T08:35:02.075Z,3.56
2017-11-30T08:36:02.103Z,3.32
2017-11-30T08:37:01.878Z,3.32
2017-11-30T08:38:01.867Z,3.4
2017-11-30T08:39:02.125Z,3.36
2017-11-30T08:40:02.149Z,3.51
2017-11-30T08:41:01.893Z,3.5
2017-11-30T08:42:02.164Z,3.55
2017-11-30T08:43:01.916Z,3.48
2017-11-30T08:44:02.188Z,3.47
2017-11-30T08:45:02.240Z,3.36
2017-11-30T08:46:02.221Z,3.36
2017-11-30T08:47:01.717Z,3.32
2017-11-30T08:48:02.265Z,3.4
2017-11-30T08:49:02.000Z,3.48
2017-11-30T08:50:02.072Z,3.6
2017-11-30T08:51:02.287Z,3.55
2017-11-30T08:52:02.306Z,3.51
2017-11-30T08:53:02.316Z,3.65
2017-11-30T08:54:02.073Z,3.77
2017-11-30T08:55:02.114Z,3.78
2017-11-30T08:56:02.092Z,3.69
2017-11-30T08:57:02.378Z,3.69
2017-11-30T08:58:02.392Z,3.62
2017-11-30T08:59:02.394Z,3.36
2017-11-30T09:00:02.417Z,3.42
2017-11-30T09:01:02.429Z,3.47
2017-11-30T09:02:02.442Z,3.44
2017-11-30T09:03:02.195Z,3.44
2017-11-30T09:04:02.197Z,3.51
2017-11-30T09:05:01.961Z,3.37
2017-11-30T09:06:02.542Z,3.31
2017-11-30T09:07:02.258Z,3.28
2017-11-30T09:08:02.514Z,3.28
2017-11-30T09:09:02.527Z,3.18
2017-11-30T09:10:02.385Z,3.14
2017-11-30T09:11:02.549Z,3.21
2017-11-30T09:12:02.605Z,3.31
2017-11-30T09:13:02.321Z,3.44
2017-11-30T09:14:02.339Z,3.73
2017-11-30T09:15:02.603Z,3.77
2017-11-30T09:16:02.363Z,3.78
2017-11-30T09:17:02.636Z,3.94
2017-11-30T09:18:02.383Z,3.98
2017-11-30T09:19:02.399Z,3.96
2017-11-30T09:20:02.682Z,3.91
2017-11-30T09:21:02.696Z,4.01
2017-11-30T09:22:02.706Z,4.05
2017-11-30T09:23:02.714Z,4.05
2017-11-30T09:24:02.744Z,3.99
2017-11-30T09:25:02.749Z,3.96
2017-11-30T09:26:02.495Z,3.8
2017-11-30T09:27:02.505Z,3.77
2017-11-30T09:28:02.775Z,3.81
2017-11-30T09:29:02.798Z,3.94
2017-11-30T09:30:02.808Z,3.96
2017-11-30T09:31:02.822Z,4.2
2017-11-30T09:32:02.835Z,4.35
2017-11-30T09:33:02.845Z,4.35
2017-11-30T09:34:02.862Z,4.34
2017-11-30T09:35:02.620Z,4.26
2017-11-30T09:36:02.896Z,4.3
2017-11-30T09:37:02.916Z,4.44
2017-11-30T09:38:02.921Z,4.37
2017-11-30T09:39:02.983Z,4.1
2017-11-30T09:40:02.945Z,4.01
2017-11-30T09:41:02.973Z,4.19
2017-11-30T09:42:02.972Z,4.22
2017-11-30T09:43:03.004Z,4.12
2017-11-30T09:44:02.484Z,3.84
2017-11-30T09:45:02.757Z,3.92
2017-11-30T09:46:02.778Z,3.86
2017-11-30T09:47:02.785Z,3.94
2017-11-30T09:48:03.054Z,3.96
2017-11-30T09:49:03.089Z,4.01
2017-11-30T09:50:02.837Z,4.14
2017-11-30T09:51:03.112Z,4.23
2017-11-30T09:52:02.854Z,4.2
2017-11-30T09:53:02.875Z,4.22
2017-11-30T09:54:02.955Z,4.14
2017-11-30T09:55:02.898Z,4.34
2017-11-30T09:56:02.911Z,4.44
2017-11-30T09:57:03.184Z,4.45
2017-11-30T09:58:02.942Z,4.14
2017-11-30T09:59:03.210Z,4.04
2017-11-30T10:00:03.231Z,4.24
2017-11-30T10:01:03.236Z,4.55
2017-11-30T10:02:02.997Z,4.4
2017-11-30T10:03:03.279Z,4.35
2017-11-30T10:04:03.283Z,4.52
2017-11-30T10:05:03.296Z,4.31
2017-11-30T10:06:03.351Z,4.13
2017-11-30T10:07:03.077Z,4.26
2017-11-30T10:08:02.819Z,4.2
2017-11-30T10:09:03.116Z,4.05
2017-11-30T10:10:03.106Z,3.99
2017-11-30T10:11:03.168Z,4.01
2017-11-30T10:12:03.139Z,4.13
2017-11-30T10:13:03.144Z,4.06
2017-11-30T10:14:03.161Z,4.02
2017-11-30T10:15:03.176Z,4.12
2017-11-30T10:16:02.933Z,4.2
2017-11-30T10:17:03.308Z,4.17
2017-11-30T10:18:03.219Z,3.99
2017-11-30T10:19:03.235Z,3.99
2017-11-30T10:20:03.498Z,3.74
2017-11-30T10:21:03.542Z,3.76
2017-11-30T10:22:03.282Z,3.76
2017-11-30T10:23:03.556Z,3.87
2017-11-30T10:24:03.560Z,3.8
2017-11-30T10:25:03.575Z,3.86
2017-11-30T10:26:03.592Z,3.88
2017-11-30T10:27:03.662Z,3.98
2017-11-30T10:28:03.614Z,4.13
2017-11-30T10:29:03.677Z,4.22
2017-11-30T10:30:03.395Z,4.32
2017-11-30T10:31:03.661Z,4.28
2017-11-30T10:32:03.422Z,4.13
2017-11-30T10:33:03.431Z,4.05
2017-11-30T10:34:03.701Z,3.95
2017-11-30T10:35:03.717Z,4.01
2017-11-30T10:36:03.735Z,3.99
2017-11-30T10:37:03.757Z,3.96
2017-11-30T10:38:03.750Z,3.81
2017-11-30T10:39:03.764Z,3.84
2017-11-30T10:40:03.775Z,3.84
2017-11-30T10:41:03.801Z,3.87
2017-11-30T10:42:03.547Z,3.73
2017-11-30T10:43:03.828Z,3.76
2017-11-30T10:44:03.587Z,3.76
2017-11-30T10:45:03.591Z,3.78
2017-11-30T10:46:03.880Z,3.74
2017-11-30T10:47:03.878Z,3.69
2017-11-30T10:48:03.649Z,3.81
2017-11-30T10:49:03.643Z,3.78
2017-11-30T10:50:03.938Z,3.62
2017-11-30T10:51:03.934Z,3.76
2017-11-30T10:52:03.943Z,3.76
2017-11-30T10:53:03.967Z,3.74
2017-11-30T10:54:03.712Z,3.76
2017-11-30T10:55:03.748Z,3.65
2017-11-30T10:56:03.744Z,3.59
2017-11-30T10:57:03.749Z,3.73
2017-11-30T10:58:04.021Z,3.81
2017-11-30T10:59:04.620Z,3.94
2017-11-30T11:00:04.053Z,3.87
2017-11-30T11:01:03.550Z,3.62
2017-11-30T11:02:03.817Z,3.63
2017-11-30T11:03:03.833Z,3.66
2017-11-30T11:04:04.104Z,3.8
2017-11-30T11:05:03.856Z,3.7
2017-11-30T11:06:04.137Z,3.8
2017-11-30T11:07:04.139Z,3.68
2017-11-30T11:08:03.894Z,3.55
2017-11-30T11:09:04.167Z,3.5
2017-11-30T11:10:04.189Z,3.48
2017-11-30T11:11:03.939Z,3.65
2017-11-30T11:12:04.206Z,3.59
2017-11-30T11:13:04.218Z,3.58
2017-11-30T11:14:03.976Z,3.53
2017-11-30T11:15:03.998Z,3.53
2017-11-30T11:16:04.010Z,3.62
2017-11-30T11:17:04.277Z,3.58
2017-11-30T11:18:04.036Z,3.63
2017-11-30T11:19:04.048Z,3.65
2017-11-30T11:20:04.071Z,3.56
2017-11-30T11:21:04.083Z,3.73
2017-11-30T11:22:04.365Z,3.86
2017-11-30T11:23:04.121Z,3.86
2017-11-30T11:24:04.385Z,3.96
2017-11-30T11:25:04.395Z,3.96
2017-11-30T11:26:04.142Z,4.04
2017-11-30T11:27:04.408Z,4.02
2017-11-30T11:28:04.164Z,3.94
2017-11-30T11:29:04.438Z,3.76
2017-11-30T11:30:04.344Z,3.65
2017-11-30T11:31:04.491Z,3.78
2017-11-30T11:32:04.474Z,3.65
2017-11-30T11:33:04.486Z,3.62
2017-11-30T11:34:04.249Z,3.77
2017-11-30T11:35:04.263Z,3.66
2017-11-30T11:36:04.297Z,3.6
2017-11-30T11:37:04.544Z,3.58
2017-11-30T11:38:04.316Z,3.73
2017-11-30T11:39:04.579Z,3.63
2017-11-30T11:40:04.590Z,3.73
2017-11-30T11:41:04.621Z,3.84
2017-11-30T11:42:04.100Z,3.88
2017-11-30T11:43:04.648Z,3.92
2017-11-30T11:44:04.642Z,3.91
2017-11-30T11:45:04.658Z,3.83
2017-11-30T11:46:04.669Z,3.77
2017-11-30T11:47:04.684Z,3.77
2017-11-30T11:48:04.747Z,3.92
2017-11-30T11:49:04.475Z,3.96
2017-11-30T11:50:04.733Z,3.92
2017-11-30T11:51:04.483Z,3.63
2017-11-30T11:52:04.756Z,3.63
2017-11-30T11:53:04.505Z,3.63
2017-11-30T11:54:04.779Z,3.6
2017-11-30T11:55:04.798Z,3.59
2017-11-30T11:56:04.546Z,3.53
2017-11-30T11:57:04.825Z,3.62
2017-11-30T11:58:04.584Z,3.48
2017-11-30T11:59:04.587Z,3.36
2017-11-30T12:00:04.623Z,3.26
2017-11-30T12:01:04.623Z,3.26
2017-11-30T12:02:04.891Z,3.32
2017-11-30T12:03:04.716Z,3.42
2017-11-30T12:04:04.924Z,3.48
2017-11-30T12:05:04.935Z,3.53
2017-11-30T12:06:04.685Z,3.56
2017-11-30T12:07:04.708Z,3.53
2017-11-30T12:08:04.737Z,3.58
2017-11-30T12:09:04.474Z,3.78
2017-11-30T12:10:04.993Z,3.84
2017-11-30T12:11:04.757Z,3.81
2017-11-30T12:12:04.776Z,3.96
2017-11-30T12:13:05.037Z,3.96
2017-11-30T12:14:04.797Z,3.84
2017-11-30T12:15:04.811Z,3.84
2017-11-30T12:16:05.080Z,3.83
2017-11-30T12:17:05.114Z,3.86
2017-11-30T12:18:04.847Z,4.01
2017-11-30T12:19:05.118Z,3.91
2017-11-30T12:20:04.616Z,3.84
2017-11-30T12:21:05.196Z,3.87
2017-11-30T12:22:04.900Z,3.87
2017-11-30T12:23:04.913Z,3.65
2017-11-30T12:24:05.186Z,3.31
2017-11-30T12:25:04.974Z,3.31
2017-11-30T12:26:05.220Z,3.53
2017-11-30T12:27:04.967Z,3.5
2017-11-30T12:28:04.982Z,3.5
2017-11-30T12:29:04.999Z,3.5
2017-11-30T12:30:05.263Z,3.48
2017-11-30T12:31:05.290Z,3.51
2017-11-30T12:32:05.292Z,3.58
2017-11-30T12:33:05.439Z,3.53
2017-11-30T12:34:05.065Z,3.51
2017-11-30T12:35:05.350Z,3.53
2017-11-30T12:36:06.565Z,3.56
2017-11-30T12:37:05.104Z,3.63
2017-11-30T12:38:05.383Z,3.58
2017-11-30T12:39:05.388Z,3.5
2017-11-30T12:40:05.153Z,3.32
2017-11-30T12:41:05.158Z,3.31
2017-11-30T12:42:05.423Z,3.28
2017-11-30T12:43:05.442Z,3.21
2017-11-30T12:44:05.464Z,3.26
2017-11-30T12:45:05.206Z,3.22
2017-11-30T12:46:05.480Z,3.1
2017-11-30T12:47:05.495Z,3.01
2017-11-30T12:48:05.517Z,3.03
2017-11-30T12:49:05.528Z,2.95
2017-11-30T12:50:05.532Z,3.03
2017-11-30T12:51:05.575Z,2.93
2017-11-30T12:52:05.567Z,2.87
2017-11-30T12:53:05.321Z,2.9
2017-11-30T12:54:05.341Z,2.93
2017-11-30T12:55:05.087Z,2.8
2017-11-30T12:56:05.623Z,2.85
2017-11-30T12:57:05.646Z,2.85
2017-11-30T12:58:05.663Z,2.72
2017-11-30T12:59:05.648Z,2.87
2017-11-30T13:00:05.396Z,2.85
2017-11-30T13:01:05.484Z,2.92
2017-11-30T13:02:05.181Z,2.93
2017-11-30T13:03:05.439Z,3.03
2017-11-30T13:04:05.469Z,3.03
2017-11-30T13:05:05.736Z,3.13
2017-11-30T13:06:05.223Z,3.07
2017-11-30T13:07:05.745Z,3.03
2017-11-30T13:08:05.760Z,3.14
2017-11-30T13:09:05.566Z,2.9
2017-11-30T13:10:05.779Z,3.03
2017-11-30T13:11:05.550Z,2.77
2017-11-30T13:12:05.805Z,2.87
2017-11-30T13:13:05.818Z,2.92
2017-11-30T13:14:05.328Z,3
2017-11-30T13:15:05.596Z,3.11
2017-11-30T13:16:05.609Z,3.03
2017-11-30T13:17:05.617Z,3.07
2017-11-30T13:18:05.881Z,3.18
2017-11-30T13:19:05.649Z,3.29
2017-11-30T13:20:05.656Z,3.25
2017-11-30T13:21:05.931Z,3.36
2017-11-30T13:22:05.437Z,3.34